Time;durP1;ratioP1;P1;durP2;ratioP2;P2;SDS_P1;SDS_P2;PMS_P1;PMS_P2;Temp;Humidity;BMP_temperature;BMP_pressure;BME280_temperature;BME280_humidity;BME280_pressure;Samples;Min_cycle;Max_cycle;Signal;HPM_P1;HPM_P2
2022/04/21 00:00:24;;;;;;;20.60;14.70;;;;;;;2.17;61.58;97033.73;109961;1247;69374;-71
2022/04/21 00:03:04;;;;;;;18.70;13.80;;;;;;;2.12;61.73;97037.73;110155;1247;59735;-68
2022/04/21 00:05:35;;;;;;;16.60;12.30;;;;;;;2.08;62.96;97038.45;110155;1247;59672;-69
2022/04/21 00:08:05;;;;;;;21.70;14.90;;;;;;;2.02;60.92;97033.04;110060;1247;71351;-70
2022/04/21 00:10:35;;;;;;;16.30;11.80;;;;;;;1.97;60.84;97039.79;110072;1246;68413;-70
2022/04/21 00:13:06;;;;;;;15.80;12.40;;;;;;;1.91;62.88;97042.29;110017;1247;68686;-68
2022/04/21 00:15:36;;;;;;;24.80;17.40;;;;;;;1.83;64.96;97044.67;110013;1247;59761;-70
2022/04/21 00:18:06;;;;;;;21.80;15.80;;;;;;;1.75;68.32;97042.61;110101;1247;59738;-67
2022/04/21 00:20:36;;;;;;;25.10;17.10;;;;;;;1.67;67.32;97044.36;110081;1246;69934;-69
2022/04/21 00:26:00;;;;;;;16.70;11.90;;;;;;;1.50;66.11;97048.01;110104;1247;69458;-69
2022/04/21 00:28:31;;;;;;;18.00;12.60;;;;;;;1.42;65.14;97051.07;110050;1247;59630;-70
2022/04/21 00:31:04;;;;;;;19.10;13.30;;;;;;;1.35;65.25;97050.52;110087;1247;59686;-68
2022/04/21 00:33:35;;;;;;;15.20;11.00;;;;;;;1.31;65.60;97048.13;110070;1247;70765;-71
2022/04/21 00:36:05;;;;;;;13.90;9.40;;;;;;;1.26;66.05;97045.23;110051;1246;69534;-69
2022/04/21 00:38:36;;;;;;;21.20;15.80;;;;;;;1.21;65.59;97047.31;110103;1247;67750;-69
2022/04/21 00:41:06;;;;;;;;;;;;;;;1.18;66.18;97046.59;110054;1247;59754;-68
2022/04/21 00:43:35;;;;;;;14.10;9.70;;;;;;;1.14;66.17;97046.61;110109;1246;59735;-71
2022/04/21 00:46:15;;;;;;;15.90;9.90;;;;;;;1.10;63.37;97049.82;110053;1247;71723;-69
2022/04/21 00:48:46;;;;;;;14.80;11.10;;;;;;;1.09;66.99;97050.23;110097;1247;69311;-69
2022/04/21 00:51:16;;;;;;;21.80;15.10;;;;;;;1.08;67.54;97052.66;110069;1247;69607;-69
2022/04/21 00:53:46;;;;;;;;;;;;;;;1.06;69.69;97056.70;110081;1247;59677;-70
2022/04/21 00:56:16;;;;;;;16.60;12.20;;;;;;;0.98;68.63;97058.02;110330;1245;60123;-70
2022/04/21 00:58:47;;;;;;;17.60;12.20;;;;;;;0.89;67.97;97058.55;110119;1245;70866;-71
2022/04/21 01:04:08;;;;;;;19.70;13.30;;;;;;;0.74;71.00;97055.70;110123;1244;69465;-71
2022/04/21 01:06:38;;;;;;;20.10;14.70;;;;;;;0.70;69.53;97053.67;110076;1247;59745;-71
2022/04/21 01:09:10;;;;;;;23.10;15.40;;;;;;;0.67;68.37;97054.15;110092;1245;59705;-70
2022/04/21 01:11:40;;;;;;;;;;;;;;;0.66;71.79;97058.96;109948;1244;71498;-69
2022/04/21 01:14:13;;;;;;;20.60;13.40;;;;;;;0.65;69.05;97059.69;109826;1247;68894;-67
2022/04/21 01:16:45;;;;;;;21.80;15.30;;;;;;;0.65;71.57;97059.88;110137;1245;68714;-67
2022/04/21 01:19:15;;;;;;;18.70;12.60;;;;;;;0.63;70.25;97057.69;110257;1245;59738;-68
2022/04/21 01:21:45;;;;;;;;;;;;;;;0.62;71.75;97056.92;110412;1244;59769;-68
2022/04/21 01:24:17;;;;;;;14.80;11.00;;;;;;;0.60;69.23;97058.52;110166;1244;71370;-69
2022/04/21 01:26:48;;;;;;;15.70;11.60;;;;;;;0.60;71.35;97059.02;110325;1244;68599;-69
2022/04/21 01:29:19;;;;;;;16.70;12.30;;;;;;;0.59;73.26;97064.05;110222;1245;68530;-69
2022/04/21 01:31:49;;;;;;;14.40;10.80;;;;;;;0.56;71.11;97065.02;110389;1244;59769;-69
2022/04/21 01:34:20;;;;;;;22.70;15.50;;;;;;;0.53;70.95;97069.23;110089;1247;59723;-69
2022/04/21 01:42:28;;;;;;;19.80;13.60;;;;;;;0.43;73.87;97072.00;110103;1245;68635;-71
2022/04/21 01:44:59;;;;;;;19.20;14.20;;;;;;;0.40;74.45;97074.19;110301;1244;59771;-69
2022/04/21 01:47:29;;;;;;;24.00;16.70;;;;;;;0.35;74.79;97075.09;110066;1247;59696;-70
2022/04/21 01:50:00;;;;;;;18.20;13.60;;;;;;;0.29;72.92;97071.02;110147;1247;70787;-70
2022/04/21 01:52:35;;;;;;;20.80;15.10;;;;;;;0.23;72.92;97067.66;110172;1244;68566;-71
2022/04/21 01:55:07;;;;;;;19.60;13.30;;;;;;;0.19;74.29;97070.02;110252;1245;68460;-70
2022/04/21 01:57:39;;;;;;;19.50;12.60;;;;;;;0.14;74.67;97075.52;110433;1244;59748;-70
2022/04/21 02:00:11;;;;;;;15.70;11.40;;;;;;;0.08;73.45;97077.28;110369;1244;59760;-71
2022/04/21 02:02:41;;;;;;;21.20;14.90;;;;;;;0.03;72.72;97080.36;110400;1244;70786;-69
2022/04/21 02:05:12;;;;;;;20.90;15.40;;;;;;;-0.02;75.83;97079.48;110422;1244;69415;-69
2022/04/21 02:07:45;;;;;;;;;;;;;;;-0.09;73.88;97080.95;110443;1244;69206;-69
2022/04/21 02:10:17;;;;;;;14.10;11.40;;;;;;;-0.15;73.28;97078.61;110056;1244;59692;-69
2022/04/21 02:12:47;;;;;;;14.00;11.50;;;;;;;-0.20;72.70;97077.25;110076;1247;59654;-70
2022/04/21 02:15:17;;;;;;;16.50;13.60;;;;;;;-0.24;73.71;97079.27;110002;1244;70776;-70
2022/04/21 02:17:47;;;;;;;11.90;10.50;;;;;;;-0.27;73.30;97075.77;110229;1244;69431;-69
2022/04/21 02:20:18;;;;;;;13.70;11.40;;;;;;;-0.28;71.86;97078.71;110201;1244;68594;-68
2022/04/21 02:22:48;;;;;;;15.10;11.40;;;;;;;-0.29;72.71;97076.36;110157;1244;59689;-71
2022/04/21 02:25:18;;;;;;;13.40;10.20;;;;;;;-0.31;70.47;97078.15;110087;1247;59677;-70
2022/04/21 02:27:50;;;;;;;23.10;16.30;;;;;;;-0.32;68.23;97079.90;110197;1245;71537;-68
2022/04/21 02:30:20;;;;;;;17.70;13.60;;;;;;;-0.33;72.14;97080.44;110347;1244;69378;-69
2022/04/21 02:32:51;;;;;;;26.30;16.50;;;;;;;-0.34;75.99;97081.34;110115;1245;68566;-70
2022/04/21 02:35:21;;;;;;;;;;;;;;;-0.37;76.75;97080.76;110361;1244;59712;-69
2022/04/21 02:37:50;;;;;;;17.50;12.10;;;;;;;-0.41;75.92;97081.21;110433;1244;59745;-70
2022/04/21 02:40:20;;;;;;;;;;;;;;;-0.43;76.10;97081.98;110180;1244;70944;-69
2022/04/21 02:42:50;;;;;;;20.10;14.00;;;;;;;-0.46;76.38;97083.45;110359;1244;69681;-70
2022/04/21 02:45:20;;;;;;;20.60;15.10;;;;;;;-0.48;77.38;97083.17;110392;1244;68666;-69
2022/04/21 02:47:50;;;;;;;13.30;11.00;;;;;;;-0.51;75.86;97084.81;110284;1244;59772;-68
2022/04/21 02:50:20;;;;;;;12.30;10.00;;;;;;;-0.55;75.28;97086.64;110370;1244;59697;-69
2022/04/21 02:52:51;;;;;;;15.00;10.50;;;;;;;-0.59;73.92;97082.84;110206;1244;71534;-68
2022/04/21 02:58:12;;;;;;;19.50;12.70;;;;;;;-0.63;74.44;97086.06;110015;1247;67624;-69
2022/04/21 03:00:42;;;;;;;17.90;12.80;;;;;;;-0.64;72.63;97086.98;110357;1245;59761;-67
2022/04/21 03:03:12;;;;;;;15.20;12.10;;;;;;;-0.65;72.70;97087.67;110063;1247;59761;-66
2022/04/21 03:05:42;;;;;;;18.10;14.00;;;;;;;-0.66;74.39;97088.41;110397;1244;70733;-67
2022/04/21 03:08:12;;;;;;;23.20;16.80;;;;;;;-0.68;75.34;97089.65;110309;1244;69411;-67
2022/04/21 03:10:42;;;;;;;18.20;13.70;;;;;;;-0.67;76.69;97087.58;110124;1244;69245;-68
2022/04/21 03:13:12;;;;;;;16.60;11.80;;;;;;;-0.64;78.25;97085.43;110349;1244;59747;-70
2022/04/21 03:15:42;;;;;;;19.30;14.30;;;;;;;-0.62;78.97;97082.95;110374;1244;59681;-68
2022/04/21 03:18:12;;;;;;;22.00;13.30;;;;;;;-0.60;77.54;97083.57;110390;1244;71346;-68
2022/04/21 03:26:19;;;;;;;20.80;14.90;;;;;;;-0.49;78.06;97091.11;110370;1244;59688;-67
2022/04/21 03:28:48;;;;;;;27.10;17.80;;;;;;;-0.45;77.31;97090.62;110192;1244;59747;-69
2022/04/21 03:31:18;;;;;;;20.20;14.40;;;;;;;-0.39;78.54;97089.54;110151;1246;70804;-70
2022/04/21 03:33:50;;;;;;;17.70;13.60;;;;;;;-0.32;76.11;97088.64;110123;1246;69475;-68
2022/04/21 03:36:20;;;;;;;18.90;12.90;;;;;;;-0.25;74.41;97085.65;110052;1246;69441;-68
2022/04/21 03:38:50;;;;;;;16.70;12.30;;;;;;;-0.19;72.83;97087.65;110036;1247;59739;-68
2022/04/21 03:41:20;;;;;;;21.50;13.70;;;;;;;-0.11;74.44;97084.98;110135;1245;59734;-66
2022/04/21 03:43:50;;;;;;;21.40;15.10;;;;;;;-0.04;77.58;97084.37;110055;1247;70777;-67
2022/04/21 03:46:20;;;;;;;22.60;15.40;;;;;;;0.04;77.80;97084.96;110121;1246;69447;-69
2022/04/21 03:48:50;;;;;;;23.30;16.50;;;;;;;0.07;77.40;97082.44;110233;1244;69295;-68
2022/04/21 03:51:20;;;;;;;23.00;15.90;;;;;;;0.10;76.77;97083.88;110131;1245;59740;-68
2022/04/21 03:53:51;;;;;;;14.90;10.20;;;;;;;0.14;77.10;97077.91;110177;1244;59692;-68
2022/04/21 03:56:21;;;;;;;19.20;12.40;;;;;;;0.18;74.48;97079.45;110267;1244;70598;-69
2022/04/21 03:58:52;;;;;;;19.50;13.50;;;;;;;0.22;72.48;97071.77;110118;1246;68763;-68
2022/04/21 04:01:23;;;;;;;26.50;17.20;;;;;;;0.25;72.63;97074.73;110077;1245;69381;-69
2022/04/21 04:03:53;;;;;;;16.00;11.30;;;;;;;0.29;75.18;97075.30;110105;1247;59783;-70
2022/04/21 04:11:59;;;;;;;24.40;15.60;;;;;;;0.44;77.46;97075.24;110446;1244;69388;-69
2022/04/21 04:14:29;;;;;;;21.50;15.60;;;;;;;0.48;78.42;97073.02;110034;1247;68560;-68
2022/04/21 04:16:59;;;;;;;25.50;14.90;;;;;;;0.54;77.31;97067.00;110076;1245;59678;-68
2022/04/21 04:19:29;;;;;;;25.10;17.10;;;;;;;0.57;73.41;97066.52;110406;1244;59702;-68
2022/04/21 04:21:59;;;;;;;23.70;16.30;;;;;;;0.60;74.51;97067.12;110280;1244;71623;-68
2022/04/21 04:24:29;;;;;;;27.40;16.80;;;;;;;0.67;73.51;97065.97;110313;1244;68532;-69
2022/04/21 04:26:59;;;;;;;26.40;17.30;;;;;;;0.77;75.18;97070.88;110103;1244;68498;-70
2022/04/21 04:29:28;;;;;;;17.40;13.20;;;;;;;0.89;75.99;97066.80;110395;1244;59682;-68
2022/04/21 04:32:01;;;;;;;25.30;17.30;;;;;;;1.04;76.05;97070.85;110432;1244;59704;-69
2022/04/21 04:34:30;;;;;;;19.80;14.30;;;;;;;1.21;75.74;97073.42;110059;1247;70766;-68
2022/04/21 04:37:00;;;;;;;20.10;13.20;;;;;;;1.40;76.17;97074.72;110373;1244;69242;-67
2022/04/21 04:39:29;;;;;;;24.60;18.10;;;;;;;1.58;75.66;97076.69;110411;1244;68628;-68
2022/04/21 04:42:20;;;;;;;22.60;17.10;;;;;;;1.71;76.11;97075.11;110239;1244;59677;-63
2022/04/21 04:47:44;;;;;;;22.60;16.40;;;;;;;1.89;74.18;97071.08;110040;1244;71585;-68
2022/04/21 04:50:14;;;;;;;19.30;14.30;;;;;;;1.90;73.77;97072.60;110123;1244;69438;-68
2022/04/21 04:52:44;;;;;;;24.20;17.50;;;;;;;1.97;73.73;97072.42;110004;1247;69462;-68
2022/04/21 04:55:13;;;;;;;21.60;16.20;;;;;;;2.02;74.44;97078.59;110198;1247;59763;-69
2022/04/21 04:57:43;;;;;;;22.90;16.60;;;;;;;2.07;75.18;97078.72;110299;1244;59621;-69
2022/04/21 05:00:13;;;;;;;22.40;16.50;;;;;;;2.11;75.36;97071.48;110428;1244;70780;-67
2022/04/21 05:02:42;;;;;;;17.20;13.70;;;;;;;2.16;75.18;97072.45;110346;1244;69177;-69
2022/04/21 05:05:12;;;;;;;21.30;14.20;;;;;;;2.26;75.43;97075.77;110391;1244;68419;-66
2022/04/21 05:07:43;;;;;;;21.30;15.20;;;;;;;2.39;75.67;97076.24;110236;1245;59705;-69
2022/04/21 05:10:19;;;;;;;22.50;15.40;;;;;;;2.50;72.99;97073.48;110132;1246;59690;-70
2022/04/21 05:12:49;;;;;;;30.30;19.70;;;;;;;2.63;72.94;97070.52;110232;1245;70554;-71
2022/04/21 05:15:19;;;;;;;33.70;22.10;;;;;;;2.74;72.83;97069.26;110133;1247;69418;-70
2022/04/21 05:17:48;;;;;;;35.60;25.20;;;;;;;2.85;74.41;97067.22;110221;1244;68598;-68
2022/04/21 05:20:27;;;;;;;27.10;19.50;;;;;;;2.95;75.24;97064.02;110162;1244;59751;-70
2022/04/21 05:23:02;;;;;;;;;;;;;;;3.02;72.97;97063.46;110072;1244;59685;-70
2022/04/21 05:25:36;;;;;;;37.60;21.90;;;;;;;3.09;70.89;97066.96;110163;1245;70770;-68
2022/04/21 05:28:09;;;;;;;44.00;27.10;;;;;;;3.14;70.84;97063.61;110328;1244;68610;-70
2022/04/21 05:33:30;;;;;;;32.50;23.80;;;;;;;3.42;71.06;97062.20;110117;1244;59747;-71
2022/04/21 05:36:00;;;;;;;32.60;23.40;;;;;;;3.69;70.92;97058.98;110393;1244;59748;-65
2022/04/21 05:38:31;;;;;;;35.70;24.00;;;;;;;4.06;70.80;97059.50;110083;1247;70801;-67
2022/04/21 05:41:00;;;;;;;26.20;20.20;;;;;;;4.48;70.60;97058.79;110352;1244;69241;-69
2022/04/21 05:43:41;;;;;;;25.00;19.40;;;;;;;4.96;69.83;97061.48;110401;1244;68647;-67
2022/04/21 05:46:13;;;;;;;23.60;18.10;;;;;;;5.36;69.25;97062.73;110112;1247;59764;-69
2022/04/21 05:48:44;;;;;;;25.40;19.80;;;;;;;5.62;68.58;97063.08;110136;1247;59705;-68
2022/04/21 05:51:15;;;;;;;21.70;16.40;;;;;;;5.86;67.68;97068.43;110096;1245;71829;-68
2022/04/21 05:53:49;;;;;;;23.50;18.60;;;;;;;5.98;66.64;97064.13;110407;1244;69524;-69
2022/04/21 05:56:18;;;;;;;21.40;16.30;;;;;;;6.03;66.11;97067.07;110337;1244;69598;-68
2022/04/21 05:58:47;;;;;;;18.50;14.40;;;;;;;6.05;65.96;97065.06;110448;1244;60719;-67
2022/04/21 06:01:16;;;;;;;17.50;14.60;;;;;;;6.11;65.57;97062.30;110227;1244;59711;-66
2022/04/21 06:03:46;;;;;;;24.30;20.40;;;;;;;6.21;65.37;97065.30;110200;1244;71369;-64
2022/04/21 06:06:15;;;;;;;20.20;16.10;;;;;;;6.40;65.20;97064.30;110084;1247;68690;-67
2022/04/21 06:08:45;;;;;;;24.60;18.40;;;;;;;6.76;64.76;97062.98;110080;1247;68689;-69
2022/04/21 06:11:16;;;;;;;19.30;15.80;;;;;;;7.27;63.34;97066.27;110132;1247;60095;-67
2022/04/21 06:13:45;;;;;;;20.80;17.40;;;;;;;7.94;61.70;97067.42;110098;1245;59660;-68
2022/04/21 06:16:14;;;;;;;25.80;21.90;;;;;;;8.60;59.26;97068.91;110152;1245;69760;-67
2022/04/21 06:18:45;;;;;;;23.80;20.50;;;;;;;9.04;56.83;97067.23;110349;1244;69373;-67
2022/04/21 06:21:14;;;;;;;20.20;17.20;;;;;;;9.32;56.97;97069.50;110023;1247;69443;-67
2022/04/21 06:23:44;;;;;;;17.60;15.20;;;;;;;9.61;57.16;97070.30;110104;1247;59715;-68
2022/04/21 06:26:13;;;;;;;18.00;14.70;;;;;;;9.77;55.80;97070.51;110134;1245;59761;-71
2022/04/21 06:28:42;;;;;;;17.40;15.00;;;;;;;9.98;56.23;97071.73;110126;1245;70594;-70
2022/04/21 06:31:12;;;;;;;16.20;14.30;;;;;;;10.13;53.11;97077.06;110356;1244;68631;-69
2022/04/21 06:33:43;;;;;;;18.30;15.90;;;;;;;10.45;52.62;97074.29;110236;1245;69416;-67
2022/04/21 06:36:12;;;;;;;20.60;16.30;;;;;;;10.62;52.02;97077.64;110090;1247;59701;-67
2022/04/21 06:38:42;;;;;;;16.40;14.20;;;;;;;10.66;51.91;97081.34;110185;1244;59696;-66
2022/04/21 06:41:12;;;;;;;18.50;16.30;;;;;;;10.97;50.56;97077.32;110220;1244;71582;-69
2022/04/21 06:49:17;;;;;;;20.00;14.50;;;;;;;11.67;48.68;97074.65;110275;1242;59678;-68
2022/04/21 06:51:47;;;;;;;17.30;15.50;;;;;;;11.79;47.80;97077.47;110425;1244;59614;-65
2022/04/21 06:54:16;;;;;;;17.30;15.50;;;;;;;11.97;46.88;97081.42;110355;1244;71089;-64
2022/04/21 06:56:48;;;;;;;18.10;16.10;;;;;;;12.19;46.68;97085.09;110162;1244;68446;-70
2022/04/21 06:59:19;;;;;;;16.00;13.90;;;;;;;11.84;45.20;97085.75;110030;1247;69462;-70
2022/04/21 07:01:48;;;;;;;18.40;16.30;;;;;;;11.28;46.46;97087.52;110096;1247;59803;-63
2022/04/21 07:04:20;;;;;;;;;;;;;;;11.27;47.12;97086.82;110093;1245;59673;-65
2022/04/21 07:06:48;;;;;;;16.90;14.40;;;;;;;11.34;46.93;97093.52;110138;1247;71641;-67
2022/04/21 07:09:18;;;;;;;16.50;14.70;;;;;;;11.40;46.95;97092.86;110068;1247;69403;-70
2022/04/21 07:11:47;;;;;;;17.00;15.20;;;;;;;11.55;47.04;97099.14;110060;1247;68541;-70
2022/04/21 07:14:16;;;;;;;17.60;15.50;;;;;;;11.63;46.66;97098.48;110128;1248;59733;-67
2022/04/21 07:16:46;;;;;;;15.70;14.00;;;;;;;11.54;45.87;97099.95;110287;1244;59612;-69
2022/04/21 07:19:16;;;;;;;17.60;14.90;;;;;;;12.03;46.43;97098.71;110419;1244;71565;-69
2022/04/21 07:21:45;;;;;;;17.90;16.00;;;;;;;12.52;44.74;97098.91;110313;1244;69668;-68
2022/04/21 07:24:14;;;;;;;17.10;15.10;;;;;;;12.62;44.35;97096.17;110289;1243;68633;-70
2022/04/21 07:26:43;;;;;;;17.70;15.90;;;;;;;12.92;43.65;97093.02;110079;1246;59682;-71
2022/04/21 07:29:13;;;;;;;13.60;12.10;;;;;;;13.05;43.02;97092.10;110103;1244;59668;-69
2022/04/21 07:31:42;;;;;;;13.60;12.20;;;;;;;13.32;42.44;97094.99;110193;1244;71624;-71
2022/04/21 07:34:13;;;;;;;15.50;13.10;;;;;;;13.91;42.45;97094.95;110018;1247;69470;-69
2022/04/21 07:36:44;;;;;;;14.20;12.70;;;;;;;14.08;41.01;97090.70;110086;1244;69449;-67
2022/04/21 07:39:14;;;;;;;13.00;11.70;;;;;;;13.85;41.46;97089.69;110035;1247;59684;-68
2022/04/21 07:41:43;;;;;;;13.30;11.90;;;;;;;14.00;41.57;97088.42;110021;1248;59716;-66
2022/04/21 07:44:16;;;;;;;14.70;13.20;;;;;;;13.94;41.41;97091.15;110191;1244;72182;-68
2022/04/21 07:46:45;;;;;;;13.20;11.90;;;;;;;13.58;41.30;97089.64;110323;1244;68914;-71
2022/04/21 07:54:52;;;;;;;17.50;15.00;;;;;;;13.31;43.11;97076.52;110088;1247;59668;-67
2022/04/21 07:57:21;;;;;;;16.90;14.80;;;;;;;13.43;42.60;97077.53;109911;1247;70871;-67
2022/04/21 07:59:50;;;;;;;16.20;13.90;;;;;;;13.57;42.58;97073.08;110061;1247;68750;-70
2022/04/21 08:02:20;;;;;;;16.80;15.00;;;;;;;13.98;42.15;97067.98;110008;1247;69469;-68
2022/04/21 08:04:49;;;;;;;16.50;14.60;;;;;;;14.31;40.37;97070.56;110051;1248;59747;-70
2022/04/21 08:07:18;;;;;;;14.20;12.80;;;;;;;14.57;39.97;97064.60;110033;1247;59593;-70
2022/04/21 08:09:47;;;;;;;15.70;14.20;;;;;;;15.01;39.96;97068.34;110094;1247;70640;-69
2022/04/21 08:12:16;;;;;;;13.80;12.40;;;;;;;15.34;38.96;97067.87;110102;1247;68756;-70
2022/04/21 08:14:46;;;;;;;13.20;11.90;;;;;;;15.45;35.88;97070.31;109840;1247;68636;-69
2022/04/21 08:17:15;;;;;;;15.00;13.50;;;;;;;15.36;34.99;97065.63;110079;1247;59703;-69
2022/04/21 08:19:44;;;;;;;15.30;13.70;;;;;;;14.90;34.93;97068.09;110063;1247;59748;-70
2022/04/21 08:22:14;;;;;;;15.70;14.10;;;;;;;14.73;35.81;97065.41;110094;1247;71551;-69
2022/04/21 08:33:16;;;;;;;15.60;14.10;;;;;;;13.48;37.99;97058.86;110001;1247;59672;-72
2022/04/21 08:35:47;;;;;;;15.50;13.80;;;;;;;14.38;37.48;97055.19;110063;1247;72301;-72
2022/04/21 08:38:17;;;;;;;17.90;14.40;;;;;;;15.02;35.96;97053.64;110082;1247;69424;-72
2022/04/21 08:40:51;;;;;;;17.40;15.60;;;;;;;14.97;36.15;97056.07;110127;1247;68650;-70
2022/04/21 08:43:22;;;;;;;15.10;12.80;;;;;;;14.22;36.06;97060.07;110088;1247;59759;-71
2022/04/21 08:45:53;;;;;;;16.50;14.80;;;;;;;14.06;37.09;97056.41;110221;1247;60181;-70
2022/04/21 08:48:24;;;;;;;14.40;12.90;;;;;;;14.07;37.24;97056.80;110254;1246;71616;-69
2022/04/21 08:50:53;;;;;;;14.90;13.00;;;;;;;14.42;36.48;97056.00;110197;1247;69409;-69
2022/04/21 08:53:26;;;;;;;12.00;10.90;;;;;;;15.54;35.48;97055.11;110233;1244;69383;-68
2022/04/21 08:55:56;;;;;;;15.70;12.90;;;;;;;16.52;33.61;97044.45;110349;1245;59732;-70
2022/04/21 08:58:25;;;;;;;;;;;;;;;16.47;31.77;97044.40;110210;1244;59726;-71
2022/04/21 09:00:57;;;;;;;13.70;12.30;;;;;;;15.94;31.80;97043.34;110521;1245;71573;-71
2022/04/21 09:03:26;;;;;;;17.00;15.40;;;;;;;16.73;32.58;97037.61;110557;1244;68919;-69
2022/04/21 09:05:55;;;;;;;15.50;14.00;;;;;;;16.64;31.29;97034.10;109748;1245;697943;-70
2022/04/21 09:08:28;;;;;;;15.90;14.20;;;;;;;15.02;33.27;97034.85;110252;1247;59733;-71
2022/04/21 09:11:11;;;;;;;16.10;14.20;;;;;;;14.63;33.64;97031.79;110198;1244;59697;-69
2022/04/21 09:13:42;;;;;;;15.70;14.10;;;;;;;14.06;33.79;97040.19;110493;1244;71560;-70
2022/04/21 09:16:12;;;;;;;16.60;14.90;;;;;;;12.99;35.56;97037.16;110349;1244;68611;-67
2022/04/21 09:18:46;;;;;;;17.10;15.20;;;;;;;12.57;36.86;97037.98;110079;1245;68788;-63
2022/04/21 09:21:17;;;;;;;17.80;15.90;;;;;;;12.44;37.65;97033.56;110098;1244;59764;-62
2022/04/21 09:23:47;;;;;;;16.30;14.60;;;;;;;12.30;38.00;97034.63;110155;1247;59690;-68
2022/04/21 09:26:20;;;;;;;17.60;15.30;;;;;;;12.20;38.65;97028.41;110270;1244;71420;-67
2022/04/21 09:28:56;;;;;;;17.40;15.40;;;;;;;12.16;38.52;97033.88;110095;1245;69360;-70
2022/04/21 09:31:27;;;;;;;16.90;15.00;;;;;;;12.10;38.71;97037.36;110018;1247;69449;-70
2022/04/21 09:33:58;;;;;;;16.80;15.00;;;;;;;11.73;39.68;97046.75;110207;1246;59753;-70
2022/04/21 09:36:29;;;;;;;15.90;14.20;;;;;;;11.52;40.10;97045.66;110316;1244;59727;-66
2022/04/21 09:39:01;;;;;;;14.80;12.50;;;;;;;11.27;41.31;97045.11;110208;1247;71631;-68
2022/04/21 09:41:31;;;;;;;15.50;13.70;;;;;;;10.99;41.33;97045.11;110154;1244;68660;-70
2022/04/21 09:47:05;;;;;;;15.30;13.70;;;;;;;10.80;42.06;97040.83;110054;1247;59654;-71
2022/04/21 09:49:41;;;;;;;16.90;14.00;;;;;;;10.80;41.59;97040.87;110324;1244;59643;-72
2022/04/21 09:52:12;;;;;;;15.30;13.10;;;;;;;10.44;42.20;97037.57;110019;1249;72208;-70
2022/04/21 09:54:41;;;;;;;15.60;13.40;;;;;;;10.42;42.49;97035.11;110176;1244;69387;-70
2022/04/21 09:57:10;;;;;;;16.20;13.60;;;;;;;10.40;42.69;97034.77;110021;1248;68760;-70
2022/04/21 09:59:41;;;;;;;16.30;12.70;;;;;;;10.34;42.96;97026.52;110150;1247;59734;-69
2022/04/21 10:02:11;;;;;;;16.30;13.70;;;;;;;10.25;43.44;97030.55;110112;1247;59805;-69
2022/04/21 10:04:47;;;;;;;18.20;13.40;;;;;;;10.31;43.07;97026.58;110386;1243;71001;-70
2022/04/21 10:07:16;;;;;;;;;;;;;;;10.27;42.97;97025.73;110124;1248;68801;-68
2022/04/21 10:09:47;;;;;;;17.80;13.20;;;;;;;10.27;43.45;97025.67;110080;1247;69570;-70
2022/04/21 10:12:16;;;;;;;15.00;13.20;;;;;;;10.31;43.30;97028.66;110086;1247;59698;-69
2022/04/21 10:14:47;;;;;;;13.50;11.10;;;;;;;10.28;43.29;97029.45;110015;1247;59599;-70
2022/04/21 10:17:17;;;;;;;15.00;12.70;;;;;;;10.33;42.97;97023.29;110259;1242;69998;-71
2022/04/21 10:19:51;;;;;;;14.90;11.60;;;;;;;10.38;42.57;97025.17;110353;1244;69399;-71
2022/04/21 10:22:27;;;;;;;;;;;;;;;10.41;42.87;97021.79;110115;1247;69636;-70
2022/04/21 10:24:57;;;;;;;9.70;8.70;;;;;;;10.50;42.51;97024.40;110463;1244;59672;-71
2022/04/21 10:27:40;;;;;;;12.20;10.90;;;;;;;10.63;42.35;97026.48;110080;1245;59712;-70
2022/04/21 10:30:21;;;;;;;14.80;13.20;;;;;;;10.77;41.90;97030.27;110432;1244;71541;-71
2022/04/21 10:32:54;;;;;;;13.00;10.70;;;;;;;10.70;41.43;97029.05;110171;1244;68602;-70
2022/04/21 10:35:24;;;;;;;14.40;11.20;;;;;;;10.84;41.55;97026.95;110367;1244;69447;-69
2022/04/21 10:38:18;;;;;;;13.20;10.00;;;;;;;10.72;41.53;97026.02;110104;1245;59720;-72
2022/04/21 10:41:07;;;;;;;12.60;10.30;;;;;;;10.82;41.94;97027.94;110404;1244;59690;-72
2022/04/21 10:43:49;;;;;;;13.70;10.70;;;;;;;10.84;41.53;97029.20;109844;1247;70805;-71
2022/04/21 10:46:19;;;;;;;12.80;10.70;;;;;;;10.99;41.93;97032.18;110601;1244;68576;-71
2022/04/21 10:48:49;;;;;;;13.90;11.00;;;;;;;11.16;42.33;97035.47;110235;1244;69491;-71
2022/04/21 10:57:33;;;;;;;13.80;11.10;;;;;;;11.60;42.27;97033.13;110173;1244;71613;-70
2022/04/21 11:00:05;;;;;;;12.30;11.00;;;;;;;11.80;42.18;97036.15;110124;1244;68733;-69
2022/04/21 11:02:41;;;;;;;16.00;14.30;;;;;;;11.99;41.89;97035.27;110120;1247;68946;-70
2022/04/21 11:05:22;;;;;;;13.50;11.50;;;;;;;12.25;41.30;97031.02;110029;1247;59688;-68
2022/04/21 11:07:59;;;;;;;16.90;13.40;;;;;;;12.50;39.77;97032.55;110462;1244;59625;-69
2022/04/21 11:10:38;;;;;;;14.20;11.70;;;;;;;12.80;40.14;97031.11;110493;1244;70771;-70
2022/04/21 11:13:11;;;;;;;18.00;13.90;;;;;;;13.14;39.73;97035.30;110467;1244;68592;-70
2022/04/21 11:15:50;;;;;;;14.80;13.30;;;;;;;13.45;39.20;97036.93;110152;1244;69811;-70
2022/04/21 11:18:31;;;;;;;14.80;13.30;;;;;;;13.93;37.20;97031.79;110140;1245;59699;-71
2022/04/21 11:21:28;;;;;;;14.30;12.80;;;;;;;14.30;35.80;97025.90;110073;1245;60087;-70
2022/04/21 11:23:57;;;;;;;14.60;12.90;;;;;;;14.93;35.77;97023.48;110446;1244;71690;-71
2022/04/21 11:26:30;;;;;;;14.10;11.80;;;;;;;15.42;34.07;97021.94;110447;1244;67652;-72
2022/04/21 11:29:03;;;;;;;12.90;11.70;;;;;;;15.92;33.13;97021.73;110553;1244;68884;-68
2022/04/21 11:31:33;;;;;;;12.60;11.40;;;;;;;16.61;30.66;97014.74;110268;1244;59742;-71
2022/04/21 11:34:02;;;;;;;10.50;9.40;;;;;;;16.55;29.63;97015.15;110417;1244;59763;-69
2022/04/21 11:36:37;;;;;;;11.00;9.60;;;;;;;16.86;30.37;97007.23;110353;1244;70646;-67
2022/04/21 11:39:13;;;;;;;12.30;10.90;;;;;;;16.84;29.68;97004.80;110205;1247;69154;-71
2022/04/21 11:41:44;;;;;;;11.20;10.10;;;;;;;16.70;29.09;97002.09;110421;1244;69528;-72
2022/04/21 11:44:24;;;;;;;12.40;10.70;;;;;;;16.35;28.39;97001.39;110399;1244;59760;-71
2022/04/21 11:46:54;;;;;;;12.90;11.40;;;;;;;15.46;29.04;97005.45;110444;1244;59682;-71
2022/04/21 11:49:23;;;;;;;10.50;8.80;;;;;;;14.64;31.06;97000.80;110142;1244;71563;-73
2022/04/21 11:51:53;;;;;;;12.70;11.40;;;;;;;14.67;31.98;96999.08;110448;1244;69431;-70
2022/04/21 11:54:22;;;;;;;13.00;11.70;;;;;;;14.14;31.90;96997.80;110410;1243;68705;-71
2022/04/21 11:56:52;;;;;;;13.30;11.90;;;;;;;13.87;32.81;96995.43;110154;1244;60152;-71
2022/04/21 11:59:34;;;;;;;15.70;14.10;;;;;;;13.89;33.08;96990.82;110406;1244;59692;-71
2022/04/21 12:07:41;;;;;;;12.10;10.60;;;;;;;13.47;33.89;96987.67;110347;1244;69122;-70
2022/04/21 12:10:10;;;;;;;14.00;12.60;;;;;;;13.55;33.98;96989.23;110382;1244;59673;-70
2022/04/21 12:12:40;;;;;;;14.00;12.40;;;;;;;13.47;34.19;96987.02;109986;1247;59721;-70
2022/04/21 12:15:09;;;;;;;17.00;13.50;;;;;;;13.47;33.92;96990.73;110050;1247;70480;-69
2022/04/21 12:17:39;;;;;;;15.80;13.20;;;;;;;13.66;33.40;96986.79;110115;1247;68613;-69
2022/04/21 12:20:09;;;;;;;11.90;10.60;;;;;;;13.77;33.51;96985.80;110398;1244;68704;-71
2022/04/21 12:22:39;;;;;;;12.40;9.80;;;;;;;14.22;34.08;96982.68;110452;1244;59760;-70
2022/04/21 12:25:12;;;;;;;12.20;10.80;;;;;;;14.81;33.37;96981.13;110409;1244;59742;-69
2022/04/21 12:27:42;;;;;;;14.40;12.90;;;;;;;15.03;31.68;96988.41;110429;1244;71131;-72
2022/04/21 12:30:12;;;;;;;12.70;11.40;;;;;;;15.06;30.88;96988.16;110121;1244;68559;-70
2022/04/21 12:32:52;;;;;;;14.50;12.30;;;;;;;15.03;31.72;96981.27;110048;1246;70044;-70
2022/04/21 12:35:45;;;;;;;13.50;11.40;;;;;;;15.35;32.02;96974.97;110394;1244;59680;-68
2022/04/21 12:41:02;;;;;;;11.30;9.40;;;;;;;15.59;31.36;96979.96;110342;1247;71594;-71
2022/04/21 12:43:32;;;;;;;10.50;9.50;;;;;;;15.40;30.23;96979.36;110132;1244;68541;-71